This is the latest recevied weather packets stored in our database for station/object K3FAZ. If no packets are shown the sender has not sent any weather packets the latest 10 day(s).
| Time | Temp. | Humidity | Pressure | Rain* | Wind** | Luminosity | Snow |
|---|---|---|---|---|---|---|---|
| 1776970784 | 24.44° C | 51% | 1016.8 hPa | 0 mm | - | 736 W/m² | - |
| 1776970482 | 24.44° C | 53% | 1016.8 hPa | 0 mm | - | 718 W/m² | - |
| 1776970178 | 24.44° C | 50% | 1016.9 hPa | 0 mm | - | 739 W/m² | - |
| 1776969874 | 25° C | 52% | 1017 hPa | 0 mm | - | 233 W/m² | - |
| 1776969572 | 25° C | 51% | 1017.2 hPa | 0 mm | - | 286 W/m² | - |
| 1776969268 | 24.44° C | 50% | 1017.1 hPa | 0 mm | - | 816 W/m² | - |
| 1776968964 | 23.89° C | 53% | 1017.4 hPa | 0 mm | - | 800 W/m² | - |
| 1776968663 | 23.89° C | 53% | 1017.3 hPa | 0 mm | - | 769 W/m² | - |
| 1776968359 | 23.89° C | 53% | 1017.3 hPa | 0 mm | - | 733 W/m² | - |
| 1776968056 | 23.89° C | 55% | 1017.4 hPa | 0 mm | - | 738 W/m² | - |
| 1776967752 | 23.89° C | 58% | 1017.4 hPa | 0 mm | - | 256 W/m² | - |
| 1776967449 | 22.78° C | 55% | 1017.5 hPa | 0 mm | - | 566 W/m² | - |
| 1776967147 | 23.33° C | 53% | 1017.5 hPa | 0 mm | - | 848 W/m² | - |
| 1776966843 | 22.78° C | 56% | 1017.6 hPa | 0 mm | - | 303 W/m² | - |
| 1776966539 | 23.89° C | 57% | 1017.8 hPa | 0 mm | - | 239 W/m² | - |
| 1776966235 | 23.89° C | 53% | 1017.8 hPa | 0 mm | - | 898 W/m² | - |
| 1776965931 | 23.33° C | 54% | 1017.8 hPa | 0 mm | - | 870 W/m² | - |
| 1776965627 | 22.78° C | 56% | 1017.8 hPa | 0 mm | - | 294 W/m² | - |
| 1776965325 | 23.33° C | 56% | 1017.8 hPa | 0 mm | - | 896 W/m² | - |
| 1776965018 | 22.78° C | 57% | 1017.9 hPa | 0 mm | - | 284 W/m² | - |
| 1776964718 | 23.33° C | 54% | 1018 hPa | 0 mm | - | 747 W/m² | - |
| 1776964417 | 23.33° C | 55% | 1017.9 hPa | 0 mm | - | 839 W/m² | - |
| 1776964116 | 22.78° C | 55% | 1018 hPa | 0 mm | - | 891 W/m² | - |
| 1776963816 | 22.78° C | 55% | 1018.3 hPa | 0 mm | - | 881 W/m² | - |
| 1776963515 | 22.78° C | 56% | 1018.3 hPa | 0 mm | - | 915 W/m² | - |
* Rain latest hour (hover to see other rain measurements)
** Current wind speed in m/s (hover to see current wind gust speed)